Huvudsida
METAR-TAF:

METAR-TAF

Flygplatser :

Foggia, Italien

latitud: 41-25-58N, longitud: 015-32-06E, höjd: 81 m

Aktuellt väderrapport

Denna rapport gjordes för 1 timme och 6 minuter sedan, klockan 11:50 UTC
Vind 12 kt från nord i byarna ända upp till 23 kt
Temperatur 14°C
Fuktighet 41%
Tryck 1031 hPa
Sikt 10 km eller mer
Få moln på en höjd av 6000 ft

METAR: LIBF 221150Z 35012G23KT 9999 FEW060 14/01 Q1031

Tid: 13:56 (12:56 UTC)


TAF: saknas

Aktuella väderrapporter och prognoser från 4000 flygplatser (METAR- och TAF-rapporter).

De tillgängliga stationerna syns som gula och röda prickar på kartan.

För musen över prickarna för att se namnen på stationerna.

Klicka sedan för att få väderrapporter och prognoser.

För att ändra kartan: Klicka på de gröna knapparna med ett svart kors på för att zooma in; den gröna knappen med ett streck på för att zooma ut; eller på de gröna pilarna för angränsande kartor.


METAR-TAF: